PWSweather.com
Personal Weather Stations
Station Observations
OFENA
OfenaIT

OfenaIT

Lat: 42.328, Lon: 13.761

Elevation: 500

Station Type: PCE-FW20

High Low Average
Temperature 83.3°F28.5°C 57.6°F14.2°C 72.1°F22.3°C
Dew Point 30.9°F-0.6°C 17.9°F-7.8°C 22.1°F-5.5°C
Winds 10.7 mph 17.2 kmh Calm Calm 3.0 mph SSE4.8 kmh SSE
Wind Gusts 18.3 mph29.5 kmh -- 9.0 mph14.5 kmh
Humidity 21% 12% 15%
Pressure 29.79 in1008.8 mb 29.69 in1005.4 mb -
Precipitation 0.01 in0.3 mm - -
Hour Temp Dew Point Humidity Winds Wind Gusts Pressure Precip Precip Rate Daily Precip Total
08:47 AM 59.2°F15.1°C 18.1°F-7.7°C 20% 2.2 mph NE3.5 kmh NE 5.4 mph8.7 kmh 29.72 in1006.4 mb 0.00 in0.0 mm 0.00 in0.0 mm 0.00 in0.0 mm
08:50 AM 75.9°F24.4°C 25.0°F-3.9°C 15% 2.2 mph SE3.5 kmh SE 4.5 mph7.2 kmh 29.72 in1006.4 mb 0.00 in0.0 mm 0.00 in0.0 mm 0.00 in0.0 mm
09:00 AM 73.2°F22.9°C 19.5°F-6.9°C 13% Calm Calm 5.4 mph8.7 kmh 29.72 in1006.4 mb 0.00 in0.0 mm 0.00 in0.0 mm 0.00 in0.0 mm
09:10 AM 72.9°F22.7°C 19.2°F-7.1°C 13% 0.7 mph S1.1 kmh S 2.2 mph3.5 kmh 29.72 in1006.4 mb 0.00 in0.0 mm 0.00 in0.0 mm 0.00 in0.0 mm
09:20 AM 72.3°F22.4°C 18.8°F-7.3°C 13% 2.2 mph SW3.5 kmh SW 4.5 mph7.2 kmh 29.73 in1006.8 mb 0.00 in0.0 mm 0.00 in0.0 mm 0.00 in0.0 mm
09:30 AM 72.0°F22.2°C 18.5°F-7.5°C 13% 0.7 mph W1.1 kmh W 6.0 mph9.7 kmh 29.73 in1006.8 mb 0.00 in0.0 mm 0.00 in0.0 mm 0.00 in0.0 mm
09:40 AM 73.9°F23.3°C 25.0°F-3.9°C 16% Calm Calm 3.1 mph5.0 kmh 29.72 in1006.4 mb 0.00 in0.0 mm 0.00 in0.0 mm 0.00 in0.0 mm
09:50 AM 77.0°F25.0°C 24.2°F-4.3°C 14% 1.6 mph SE2.6 kmh SE 3.8 mph6.1 kmh 29.72 in1006.4 mb 0.00 in0.0 mm 0.00 in0.0 mm 0.00 in0.0 mm
10:00 AM 75.9°F24.4°C 25.0°F-3.9°C 15% 0.7 mph S1.1 kmh S 6.9 mph11.1 kmh 29.72 in1006.4 mb 0.00 in0.0 mm 0.00 in0.0 mm 0.00 in0.0 mm
10:10 AM 76.1°F24.5°C 25.1°F-3.8°C 15% 1.6 mph SSW2.6 kmh SSW 6.0 mph9.7 kmh 29.72 in1006.4 mb 0.00 in0.0 mm 0.00 in0.0 mm 0.00 in0.0 mm
10:20 AM 72.9°F22.7°C 19.2°F-7.1°C 13% 6.0 mph N9.7 kmh N 10.7 mph17.2 kmh 29.73 in1006.8 mb 0.00 in0.0 mm 0.00 in0.0 mm 0.00 in0.0 mm
10:30 AM 72.7°F22.6°C 19.0°F-7.2°C 13% 5.4 mph W8.7 kmh W 10.7 mph17.2 kmh 29.72 in1006.4 mb 0.00 in0.0 mm 0.00 in0.0 mm 0.00 in0.0 mm
10:40 AM 73.8°F23.2°C 24.8°F-4.0°C 16% 4.5 mph NW7.2 kmh NW 9.8 mph15.8 kmh 29.73 in1006.8 mb 0.00 in0.0 mm 0.00 in0.0 mm 0.00 in0.0 mm
10:50 AM 75.2°F24.0°C 24.4°F-4.2°C 15% 2.2 mph NW3.5 kmh NW 8.3 mph13.4 kmh 29.73 in1006.8 mb 0.00 in0.0 mm 0.00 in0.0 mm 0.00 in0.0 mm
11:00 AM 78.3°F25.7°C 25.2°F-3.8°C 14% 3.1 mph NE5.0 kmh NE 6.0 mph9.7 kmh 29.73 in1006.8 mb 0.00 in0.0 mm 0.00 in0.0 mm 0.00 in0.0 mm
11:10 AM 81.1°F27.3°C 23.8°F-4.6°C 12% 5.4 mph SSE8.7 kmh SSE 8.3 mph13.4 kmh 29.73 in1006.8 mb 0.00 in0.0 mm 0.00 in0.0 mm 0.00 in0.0 mm
11:20 AM 79.9°F26.6°C 24.7°F-4.1°C 13% 4.5 mph WNW7.2 kmh WNW 13.6 mph21.9 kmh 29.72 in1006.4 mb 0.00 in0.0 mm 0.00 in0.0 mm 0.00 in0.0 mm
11:30 AM 78.1°F25.6°C 25.1°F-3.8°C 14% 4.5 mph NNW7.2 kmh NNW 13.6 mph21.9 kmh 29.73 in1006.8 mb 0.00 in0.0 mm 0.00 in0.0 mm 0.00 in0.0 mm
11:40 AM 83.3°F28.5°C 30.9°F-0.6°C 15% 3.8 mph W6.1 kmh W 9.2 mph14.8 kmh 29.72 in1006.4 mb 0.00 in0.0 mm 0.00 in0.0 mm 0.00 in0.0 mm
11:50 AM 81.7°F27.6°C 24.2°F-4.3°C 12% 3.8 mph S6.1 kmh S 9.8 mph15.8 kmh 29.71 in1006.1 mb 0.00 in0.0 mm 0.00 in0.0 mm 0.00 in0.0 mm
12:00 PM 78.3°F25.7°C 25.2°F-3.8°C 14% 4.5 mph S7.2 kmh S 13.0 mph20.9 kmh 29.71 in1006.1 mb 0.00 in0.0 mm 0.00 in0.0 mm 0.00 in0.0 mm
12:10 PM 79.9°F26.6°C 24.7°F-4.1°C 13% 3.8 mph S6.1 kmh S 10.7 mph17.2 kmh 29.71 in1006.1 mb 0.00 in0.0 mm 0.00 in0.0 mm 0.00 in0.0 mm
12:20 PM 77.4°F25.2°C 24.5°F-4.2°C 14% 3.8 mph S6.1 kmh S 13.0 mph20.9 kmh 29.71 in1006.1 mb 0.00 in0.0 mm 0.00 in0.0 mm 0.00 in0.0 mm
12:30 PM 74.1°F23.4°C 25.1°F-3.8°C 16% 3.8 mph NNW6.1 kmh NNW 18.3 mph29.5 kmh 29.73 in1006.8 mb 0.00 in0.0 mm 0.00 in0.0 mm 0.00 in0.0 mm
12:40 PM 70.9°F21.6°C 19.4°F-7.0°C 14% 6.0 mph N9.7 kmh N 15.9 mph25.6 kmh 29.73 in1006.8 mb 0.00 in0.0 mm 0.00 in0.0 mm 0.00 in0.0 mm
12:50 PM 69.8°F21.0°C 18.5°F-7.5°C 14% 5.4 mph NNW8.7 kmh NNW 10.7 mph17.2 kmh 29.74 in1007.1 mb 0.00 in0.0 mm 0.00 in0.0 mm 0.00 in0.0 mm
01:00 PM 68.9°F20.5°C 19.4°F-7.0°C 15% 5.4 mph N8.7 kmh N 12.1 mph19.5 kmh 29.74 in1007.1 mb 0.00 in0.0 mm 0.00 in0.0 mm 0.00 in0.0 mm
01:10 PM 65.1°F18.4°C 19.3°F-7.1°C 17% 4.5 mph N7.2 kmh N 14.5 mph23.3 kmh 29.73 in1006.8 mb 0.01 in0.3 mm 0.06 in1.5 mm 0.01 in0.3 mm
01:20 PM 65.1°F18.4°C 19.3°F-7.1°C 17% 3.1 mph NNE5.0 kmh NNE 8.3 mph13.4 kmh 29.73 in1006.8 mb 0.01 in0.3 mm 0.00 in0.0 mm 0.01 in0.3 mm
01:30 PM 68.5°F20.3°C 19.1°F-7.2°C 15% 5.4 mph NW8.7 kmh NW 7.6 mph12.2 kmh 29.72 in1006.4 mb 0.01 in0.3 mm 0.00 in0.0 mm 0.01 in0.3 mm
01:40 PM 75.4°F24.1°C 24.6°F-4.1°C 15% 5.4 mph WNW8.7 kmh WNW 14.5 mph23.3 kmh 29.72 in1006.4 mb 0.01 in0.3 mm 0.00 in0.0 mm 0.01 in0.3 mm
01:50 PM 79.3°F26.3°C 24.3°F-4.3°C 13% 9.2 mph N14.8 kmh N 13.6 mph21.9 kmh 29.73 in1006.8 mb 0.01 in0.3 mm 0.00 in0.0 mm 0.01 in0.3 mm
02:00 PM 77.2°F25.1°C 24.3°F-4.3°C 14% 8.3 mph SE13.4 kmh SE 18.3 mph29.5 kmh 29.72 in1006.4 mb 0.01 in0.3 mm 0.00 in0.0 mm 0.01 in0.3 mm
02:10 PM 80.1°F26.7°C 24.8°F-4.0°C 13% 6.9 mph SE11.1 kmh SE 18.3 mph29.5 kmh 29.72 in1006.4 mb 0.00 in0.0 mm 0.00 in0.0 mm 0.01 in0.3 mm
02:20 PM 77.7°F25.4°C 24.8°F-4.0°C 14% 3.8 mph S6.1 kmh S 12.1 mph19.5 kmh 29.71 in1006.1 mb 0.00 in0.0 mm 0.00 in0.0 mm 0.01 in0.3 mm
02:30 PM 80.6°F27.0°C 23.4°F-4.8°C 12% 4.5 mph S7.2 kmh S 13.0 mph20.9 kmh 29.71 in1006.1 mb 0.00 in0.0 mm 0.00 in0.0 mm 0.01 in0.3 mm
02:40 PM 79.2°F26.2°C 24.1°F-4.4°C 13% 4.5 mph SSE7.2 kmh SSE 11.4 mph18.3 kmh 29.70 in1005.8 mb 0.00 in0.0 mm 0.00 in0.0 mm 0.01 in0.3 mm
02:50 PM 82.8°F28.2°C 30.4°F-0.9°C 15% 4.5 mph S7.2 kmh S 14.5 mph23.3 kmh 29.69 in1005.4 mb 0.00 in0.0 mm 0.00 in0.0 mm 0.01 in0.3 mm
03:00 PM 82.9°F28.3°C 30.6°F-0.8°C 15% 10.7 mph S17.2 kmh S 18.3 mph29.5 kmh 29.70 in1005.8 mb 0.00 in0.0 mm 0.00 in0.0 mm 0.01 in0.3 mm
03:10 PM 79.5°F26.4°C 24.4°F-4.2°C 13% 4.5 mph SSE7.2 kmh SSE 15.9 mph25.6 kmh 29.70 in1005.8 mb 0.00 in0.0 mm 0.00 in0.0 mm 0.01 in0.3 mm
03:20 PM 81.9°F27.7°C 24.3°F-4.3°C 12% 4.5 mph SW7.2 kmh SW 12.1 mph19.5 kmh 29.70 in1005.8 mb 0.00 in0.0 mm 0.00 in0.0 mm 0.01 in0.3 mm
03:30 PM 82.9°F28.3°C 30.6°F-0.8°C 15% 2.2 mph WSW3.5 kmh WSW 9.2 mph14.8 kmh 29.71 in1006.1 mb 0.00 in0.0 mm 0.00 in0.0 mm 0.01 in0.3 mm
03:40 PM 82.4°F28.0°C 30.2°F-1.0°C 15% 5.4 mph SE8.7 kmh SE 15.9 mph25.6 kmh 29.71 in1006.1 mb 0.00 in0.0 mm 0.00 in0.0 mm 0.01 in0.3 mm
03:50 PM 82.2°F27.9°C 24.6°F-4.1°C 12% 6.9 mph WSW11.1 kmh WSW 12.1 mph19.5 kmh 29.71 in1006.1 mb 0.00 in0.0 mm 0.00 in0.0 mm 0.01 in0.3 mm
04:00 PM 79.5°F26.4°C 24.4°F-4.2°C 13% 4.5 mph NW7.2 kmh NW 10.7 mph17.2 kmh 29.72 in1006.4 mb 0.00 in0.0 mm 0.00 in0.0 mm 0.01 in0.3 mm
04:10 PM 77.7°F25.4°C 24.8°F-4.0°C 14% 5.4 mph S8.7 kmh S 12.1 mph19.5 kmh 29.72 in1006.4 mb 0.00 in0.0 mm 0.00 in0.0 mm 0.01 in0.3 mm
04:20 PM 75.0°F23.9°C 25.8°F-3.4°C 16% 3.1 mph S5.0 kmh S 17.4 mph28.0 kmh 29.72 in1006.4 mb 0.00 in0.0 mm 0.00 in0.0 mm 0.01 in0.3 mm
04:30 PM 74.5°F23.6°C 25.4°F-3.7°C 16% 4.5 mph SE7.2 kmh SE 11.4 mph18.3 kmh 29.72 in1006.4 mb 0.00 in0.0 mm 0.00 in0.0 mm 0.01 in0.3 mm
04:40 PM 74.7°F23.7°C 25.5°F-3.6°C 16% 3.1 mph SSE5.0 kmh SSE 14.5 mph23.3 kmh 29.72 in1006.4 mb 0.00 in0.0 mm 0.00 in0.0 mm 0.01 in0.3 mm
04:50 PM 77.2°F25.1°C 24.3°F-4.3°C 14% 10.7 mph S17.2 kmh S 13.6 mph21.9 kmh 29.72 in1006.4 mb 0.00 in0.0 mm 0.00 in0.0 mm 0.01 in0.3 mm
05:00 PM 77.5°F25.3°C 24.6°F-4.1°C 14% 6.0 mph SSW9.7 kmh SSW 13.6 mph21.9 kmh 29.72 in1006.4 mb 0.00 in0.0 mm 0.00 in0.0 mm 0.01 in0.3 mm
05:10 PM 77.9°F25.5°C 24.9°F-3.9°C 14% 6.0 mph S9.7 kmh S 10.7 mph17.2 kmh 29.72 in1006.4 mb 0.00 in0.0 mm 0.00 in0.0 mm 0.01 in0.3 mm
05:20 PM 77.2°F25.1°C 24.3°F-4.3°C 14% 6.0 mph SSW9.7 kmh SSW 9.8 mph15.8 kmh 29.72 in1006.4 mb 0.00 in0.0 mm 0.00 in0.0 mm 0.01 in0.3 mm
05:30 PM 77.0°F25.0°C 24.2°F-4.3°C 14% 1.6 mph SW2.6 kmh SW 9.8 mph15.8 kmh 29.71 in1006.1 mb 0.00 in0.0 mm 0.00 in0.0 mm 0.01 in0.3 mm
05:40 PM 73.2°F22.9°C 19.5°F-6.9°C 13% 6.0 mph S9.7 kmh S 13.0 mph20.9 kmh 29.72 in1006.4 mb 0.00 in0.0 mm 0.00 in0.0 mm 0.01 in0.3 mm
05:50 PM 72.3°F22.4°C 18.8°F-7.3°C 13% 4.5 mph S7.2 kmh S 9.8 mph15.8 kmh 29.72 in1006.4 mb 0.00 in0.0 mm 0.00 in0.0 mm 0.01 in0.3 mm
06:00 PM 75.0°F23.9°C 25.8°F-3.4°C 16% 3.1 mph S5.0 kmh S 11.4 mph18.3 kmh 29.72 in1006.4 mb 0.00 in0.0 mm 0.00 in0.0 mm 0.01 in0.3 mm
06:10 PM 72.3°F22.4°C 18.8°F-7.3°C 13% 2.2 mph SW3.5 kmh SW 9.8 mph15.8 kmh 29.73 in1006.8 mb 0.00 in0.0 mm 0.00 in0.0 mm 0.01 in0.3 mm
06:20 PM 70.3°F21.3°C 18.9°F-7.3°C 14% 4.5 mph S7.2 kmh S 9.2 mph14.8 kmh 29.73 in1006.8 mb 0.00 in0.0 mm 0.00 in0.0 mm 0.01 in0.3 mm
06:30 PM 69.6°F20.9°C 20.0°F-6.7°C 15% 3.1 mph S5.0 kmh S 8.3 mph13.4 kmh 29.73 in1006.8 mb 0.00 in0.0 mm 0.00 in0.0 mm 0.01 in0.3 mm
06:40 PM 69.1°F20.6°C 19.5°F-6.9°C 15% 1.6 mph SE2.6 kmh SE 8.3 mph13.4 kmh 29.74 in1007.1 mb 0.00 in0.0 mm 0.00 in0.0 mm 0.01 in0.3 mm
06:50 PM 68.5°F20.3°C 19.1°F-7.2°C 15% 2.2 mph S3.5 kmh S 5.4 mph8.7 kmh 29.75 in1007.5 mb 0.00 in0.0 mm 0.00 in0.0 mm 0.01 in0.3 mm
07:00 PM 68.0°F20.0°C 18.7°F-7.4°C 15% 3.1 mph S5.0 kmh S 5.4 mph8.7 kmh 29.75 in1007.5 mb 0.00 in0.0 mm 0.00 in0.0 mm 0.01 in0.3 mm
07:10 PM 67.5°F19.7°C 19.7°F-6.8°C 16% Calm Calm 4.5 mph7.2 kmh 29.75 in1007.5 mb 0.00 in0.0 mm 0.00 in0.0 mm 0.01 in0.3 mm
07:20 PM 67.3°F19.6°C 19.6°F-6.9°C 16% Calm Calm -- 29.75 in1007.5 mb 0.00 in0.0 mm 0.00 in0.0 mm 0.01 in0.3 mm
07:30 PM 66.7°F19.3°C 19.2°F-7.1°C 16% Calm Calm 2.2 mph3.5 kmh 29.76 in1007.8 mb 0.00 in0.0 mm 0.00 in0.0 mm 0.01 in0.3 mm
07:40 PM 66.6°F19.2°C 19.0°F-7.2°C 16% Calm Calm -- 29.76 in1007.8 mb 0.00 in0.0 mm 0.00 in0.0 mm 0.01 in0.3 mm
07:50 PM 66.4°F19.1°C 18.9°F-7.3°C 16% Calm Calm -- 29.76 in1007.8 mb 0.00 in0.0 mm 0.00 in0.0 mm 0.01 in0.3 mm
08:00 PM 66.4°F19.1°C 18.9°F-7.3°C 16% Calm Calm -- 29.77 in1008.1 mb 0.00 in0.0 mm 0.00 in0.0 mm 0.01 in0.3 mm
08:10 PM 66.4°F19.1°C 18.9°F-7.3°C 16% Calm Calm 0.7 mph1.1 kmh 29.77 in1008.1 mb 0.00 in0.0 mm 0.00 in0.0 mm 0.01 in0.3 mm
08:20 PM 66.4°F19.1°C 18.9°F-7.3°C 16% Calm Calm 0.7 mph1.1 kmh 29.76 in1007.8 mb 0.00 in0.0 mm 0.00 in0.0 mm 0.01 in0.3 mm
08:30 PM 65.7°F18.7°C 19.7°F-6.8°C 17% 1.6 mph E2.6 kmh E 3.1 mph5.0 kmh 29.77 in1008.1 mb 0.00 in0.0 mm 0.00 in0.0 mm 0.01 in0.3 mm
08:40 PM 65.3°F18.5°C 19.4°F-7.0°C 17% 4.5 mph E7.2 kmh E 6.9 mph11.1 kmh 29.77 in1008.1 mb 0.00 in0.0 mm 0.00 in0.0 mm 0.01 in0.3 mm
08:50 PM 65.1°F18.4°C 19.3°F-7.1°C 17% 4.5 mph ENE7.2 kmh ENE 8.3 mph13.4 kmh 29.77 in1008.1 mb 0.00 in0.0 mm 0.00 in0.0 mm 0.01 in0.3 mm
09:00 PM 64.9°F18.3°C 19.1°F-7.2°C 17% 4.5 mph NE7.2 kmh NE 6.9 mph11.1 kmh 29.77 in1008.1 mb 0.00 in0.0 mm 0.00 in0.0 mm 0.01 in0.3 mm
09:10 PM 63.9°F17.7°C 19.6°F-6.9°C 18% 3.8 mph NE6.1 kmh NE 5.4 mph8.7 kmh 29.77 in1008.1 mb 0.00 in0.0 mm 0.00 in0.0 mm 0.01 in0.3 mm
09:20 PM 63.7°F17.6°C 19.4°F-7.0°C 18% 1.6 mph ENE2.6 kmh ENE 6.0 mph9.7 kmh 29.78 in1008.5 mb 0.00 in0.0 mm 0.00 in0.0 mm 0.01 in0.3 mm
09:30 PM 63.9°F17.7°C 19.6°F-6.9°C 18% 2.2 mph E3.5 kmh E 6.0 mph9.7 kmh 29.78 in1008.5 mb 0.00 in0.0 mm 0.00 in0.0 mm 0.01 in0.3 mm
09:40 PM 63.5°F17.5°C 19.3°F-7.1°C 18% 1.6 mph NE2.6 kmh NE 3.8 mph6.1 kmh 29.78 in1008.5 mb 0.00 in0.0 mm 0.00 in0.0 mm 0.01 in0.3 mm
09:50 PM 63.9°F17.7°C 19.6°F-6.9°C 18% 3.1 mph N5.0 kmh N 9.2 mph14.8 kmh 29.78 in1008.5 mb 0.00 in0.0 mm 0.00 in0.0 mm 0.01 in0.3 mm
10:00 PM 63.7°F17.6°C 19.4°F-7.0°C 18% 1.6 mph NE2.6 kmh NE 3.8 mph6.1 kmh 29.78 in1008.5 mb 0.00 in0.0 mm 0.00 in0.0 mm 0.01 in0.3 mm
10:10 PM 63.3°F17.4°C 19.1°F-7.2°C 18% Calm Calm 3.8 mph6.1 kmh 29.78 in1008.5 mb 0.00 in0.0 mm 0.00 in0.0 mm 0.01 in0.3 mm
10:20 PM 63.0°F17.2°C 18.8°F-7.3°C 18% Calm Calm 3.1 mph5.0 kmh 29.79 in1008.8 mb 0.00 in0.0 mm 0.00 in0.0 mm 0.01 in0.3 mm
10:30 PM 62.2°F16.8°C 19.5°F-6.9°C 19% 3.1 mph NE5.0 kmh NE 5.4 mph8.7 kmh 29.78 in1008.5 mb 0.00 in0.0 mm 0.00 in0.0 mm 0.01 in0.3 mm
10:40 PM 62.1°F16.7°C 19.3°F-7.1°C 19% 1.6 mph NNE2.6 kmh NNE 6.0 mph9.7 kmh 29.78 in1008.5 mb 0.00 in0.0 mm 0.00 in0.0 mm 0.01 in0.3 mm